Nashville Plt, Maine
Current Conditions -  °F | °C
As of 6:55 AM on Friday 21 Nov 2014 (Local Time) from KPQI Reporting Station
Scattered Clouds Scattered Clouds  
Wind Chill: 11°   Ceiling: Unl
Heat Index: 18°   Visibility: 10mi
Dew Point: 10°   Wind: 5mph
Humidity: 73%   Direction: 260°W
Pressure: 29.72"   Gusts: NA
Location:  46.6213°N, 68.5555°W
Report Text: KPQI 211155Z AUTO 26004KT 10SM SCT060 M08/M12 A2972 RMK AO1 11070 21100 52014
Loading
Personal Weather Stations






























Interactive Weather Map New forecast layout! Learn more

10-Day Weather Forecast

Advertisements
Track Severe Weather on mobile